Terminal Aerodrome Forecast
Issued by NWS

Home | Current Version | Previous Version | Text Only | Print | Product List | Glossary On
Versions: 1 2 3 4 5 6 7 8 9 10 11 12 13 14 15
000
FTUS44 KLZK 261738
TAFHOT
TAF
KHOT 261738Z 2618/2718 19010KT P6SM VCTS SCT025 BKN050CB
     FM270000 17007KT P6SM SCT050 BKN100
     FM270800 16008KT P6SM VCTS BKN025 OVC050CB
     FM271200 15008KT 6SM -TSRA BR OVC015CB=

USA.gov is the U.S. government's official web portal to all federal, state and local government web resources and services.